Data for 09/29/2005

Time Sea-Level Adjusted Pressure Absolute Pressure Temperature Relative Humidity Dew Point   
(mb) (inHg) (mb) (inHg) (C) (F) (%) (C) (F)
00:05 1022 30.18 851 25.13 9.1 48.4 34 -5.8 21.5
00:10 1022 30.18 851 25.13 8.9 48.1 34 -6 21.1
00:15 1022 30.18 851 25.13 9.3 48.7 34 -5.9 21.4
00:20 1022 30.18 851 25.13 9.6 49.2 31 -6.8 19.7
00:25 1022 30.18 851 25.13 10.1 50.1 31 -6.5 20.4
00:30 1022 30.18 851 25.13 10 49.9 31 -6.3 20.7
00:35 1021 30.15 851 25.13 9.9 49.8 31 -6.3 20.6
00:40 1021 30.15 851 25.13 9.7 49.5 32 -6.2 20.8
00:45 1021 30.15 850 25.1 9.4 48.9 32 -6.3 20.7
00:50 1021 30.15 851 25.13 9.3 48.8 35 -5.3 22.4
00:55 1021 30.15 851 25.13 8.1 46.5 44 -3.5 25.8
01:00 1021 30.15 851 25.13 6.4 43.5 47 -4 24.8
01:05 1021 30.15 851 25.13 6.4 43.4 41 -6 21.2
01:10 1021 30.15 851 25.13 7.9 46.2 35 -6.5 20.4
01:15 1021 30.15 850 25.1 9.2 48.5 33 -6.5 20.4
01:20 1021 30.15 850 25.1 9.5 49.1 33 -6 21.2
01:25 1021 30.15 850 25.1 9.5 49.2 33 -6 21.2
01:30 1021 30.15 850 25.1 9.9 49.7 32 -6.2 20.8
01:35 1021 30.15 850 25.1 10.2 50.3 31 -6.3 20.7
01:40 1021 30.15 850 25.1 10.2 50.4 31 -6.3 20.7
01:45 1021 30.15 850 25.1 10.1 50.1 31 -6.2 20.9
01:50 1021 30.15 850 25.1 10.2 50.3 32 -5.8 21.5
01:55 1021 30.15 851 25.13 9.8 49.7 34 -5.3 22.5
02:00 1021 30.15 851 25.13 8.7 47.6 41 -3.9 24.9
02:05 1021 30.15 851 25.13 8.3 46.9 39 -4.9 23.1
02:10 1021 30.15 851 25.13 8.3 46.9 39 -4.9 23.2
02:15 1021 30.15 851 25.13 7.9 46.3 39 -5.2 22.7
02:20 1021 30.15 851 25.13 8.1 46.7 39 -5 23
02:25 1021 30.15 851 25.13 8.1 46.6 41 -4.3 24.2
02:30 1021 30.15 851 25.13 7.6 45.8 40 -5 23.1
02:35 1021 30.15 851 25.13 7.8 46.1 41 -4.6 23.8
02:40 1021 30.15 850 25.1 7.7 45.8 41 -4.6 23.7
02:45 1021 30.15 850 25.1 7.9 46.3 39 -5.2 22.6
02:50 1021 30.15 850 25.1 8 46.3 39 -5 23
02:55 1021 30.15 850 25.1 8.1 46.5 40 -4.8 23.3
03:00 1021 30.15 850 25.1 6.8 44.3 46 -4.1 24.7
03:05 1021 30.15 850 25.1 6.3 43.3 46 -4.5 23.9
03:10 1021 30.15 850 25.1 6.3 43.3 46 -4.4 24.1
03:15 1021 30.15 850 25.1 6.5 43.8 44 -5 23.1
03:20 1021 30.15 850 25.1 7.3 45.1 42 -4.9 23.1
03:25 1021 30.15 850 25.1 7.4 45.3 43 -4.5 24
03:30 1021 30.15 850 25.1 6.5 43.7 46 -4.2 24.4
03:35 1021 30.15 850 25.1 6.4 43.5 45 -4.7 23.6
03:40 1021 30.15 850 25.1 6.5 43.7 44 -4.8 23.4
03:45 1021 30.15 850 25.1 6.9 44.5 42 -5.1 22.7
03:50 1021 30.15 850 25.1 7.7 45.9 41 -4.6 23.7
03:55 1021 30.15 850 25.1 7.9 46.2 41 -4.4 24.1
04:00 1021 30.15 850 25.1 7.6 45.6 42 -4.4 24.1
04:05 1021 30.15 850 25.1 6.7 44.1 46 -4.1 24.6
04:10 1021 30.15 850 25.1 5.5 41.8 54 -3.2 26.2
04:15 1021 30.15 850 25.1 6 42.8 42 -5.9 21.3
04:20 1021 30.15 850 25.1 7.2 44.9 40 -5.5 22.1
04:25 1021 30.15 850 25.1 7.5 45.4 41 -5 23
04:30 1021 30.15 850 25.1 7.5 45.6 41 -5 23.1
04:35 1021 30.15 850 25.1 7.6 45.7 40 -5.3 22.5
04:40 1021 30.15 850 25.1 7.9 46.2 39 -5.3 22.5
04:45 1021 30.15 850 25.1 8.3 46.9 36 -6.1 21
04:50 1021 30.15 850 25.1 8.6 47.5 36 -5.6 21.9
04:55 1021 30.15 850 25.1 8.6 47.5 37 -5.1 22.7
05:00 1021 30.15 850 25.1 8.1 46.6 38 -5.3 22.4
05:05 1021 30.15 850 25.1 7.8 46 41 -4.5 23.9
05:10 1021 30.15 850 25.1 6.8 44.3 44 -4.5 23.9
05:15 1021 30.15 850 25.1 6.4 43.4 47 -4.1 24.7
05:20 1021 30.15 850 25.1 5.7 42.3 49 -4.1 24.5
05:25 1021 30.15 850 25.1 5 41.1 56 -2.9 26.8
05:30 1021 30.15 850 25.1 4 39.2 58 -3.4 25.8
05:35 1021 30.15 850 25.1 4.1 39.4 55 -4.2 24.5
05:40 1021 30.15 850 25.1 4.7 40.5 52 -4.4 24.1
05:45 1021 30.15 850 25.1 5.1 41.1 53 -3.8 25.2
05:50 1021 30.15 850 25.1 5.3 41.6 49 -4.4 24
05:55 1020 30.12 850 25.1 6.1 43 45 -4.8 23.3
06:00 1020 30.12 850 25.1 7.3 45.1 42 -4.8 23.4
06:05 1021 30.15 850 25.1 6.8 44.3 41 -5.5 22.1
06:10 1020 30.12 850 25.1 7.4 45.3 38 -5.9 21.3
06:15 1020 30.12 850 25.1 7.9 46.2 39 -5.1 22.7
06:20 1020 30.12 850 25.1 7.7 45.8 38 -5.6 21.9
06:25 1020 30.12 850 25.1 7.4 45.3 42 -4.5 23.8
06:30 1020 30.12 850 25.1 6.7 44.1 42 -5.2 22.6
06:35 1020 30.12 850 25.1 6.7 44 45 -4.5 23.9
06:40 1020 30.12 850 25.1 6.1 42.9 49 -3.9 24.9
06:45 1020 30.12 850 25.1 5.6 42 48 -4.6 23.8
06:50 1020 30.12 850 25.1 5.8 42.5 47 -4.5 23.9
06:55 1020 30.12 850 25.1 5.8 42.4 43 -5.8 21.6
07:00 1020 30.12 850 25.1 6.7 44.1 42 -5.4 22.3
07:05 1020 30.12 849 25.07 6.2 43.2 45 -4.8 23.3
07:10 1020 30.12 849 25.07 6.1 42.9 45 -4.8 23.3
07:15 1020 30.12 849 25.07 6 42.8 45 -4.9 23.1
07:20 1020 30.12 849 25.07 6.4 43.6 40 -6.1 20.9
07:25 1020 30.12 850 25.1 7.1 44.7 42 -5.1 22.8
07:30 1020 30.12 850 25.1 6.6 44 43 -5.1 22.8
07:35 1020 30.12 850 25.1 6.4 43.6 42 -5.5 22.2
07:40 1021 30.15 850 25.1 6.8 44.2 42 -5.1 22.8
07:45 1021 30.15 850 25.1 7.2 45 37 -6.4 20.4
07:50 1021 30.15 850 25.1 7.9 46.2 37 -5.7 21.7
07:55 1021 30.15 850 25.1 7.8 46 40 -4.9 23.2
08:00 1021 30.15 850 25.1 7.1 44.8 44 -4.3 24.3
08:05 1021 30.15 850 25.1 6.8 44.3 42 -5.2 22.6
08:10 1020 30.12 850 25.1 7.1 44.7 45 -4 24.7
08:15 1020 30.12 850 25.1 6.5 43.6 47 -4 24.7
08:20 1021 30.15 850 25.1 6.7 44 40 -5.9 21.4
08:25 1021 30.15 850 25.1 7.3 45.2 47 -3.3 26
08:30 1020 30.12 850 25.1 7.8 46.1 44 -3.5 25.7
08:35 1020 30.12 850 25.1 8.1 46.5 46 -2.7 27.1
08:40 1020 30.12 850 25.1 7.4 45.4 50 -2.3 27.8
08:45 1020 30.12 850 25.1 6.9 44.5 48 -3.3 26.1
08:50 1021 30.15 850 25.1 7 44.7 49 -2.9 26.8
08:55 1021 30.15 850 25.1 7.2 45 48 -3 26.6
09:00 1020 30.12 850 25.1 7.7 45.9 42 -4.4 24.1
09:05 1020 30.12 850 25.1 8.7 47.7 44 -2.8 26.9
09:10 1020 30.12 850 25.1 8.5 47.3 41 -3.9 25
09:15 1020 30.12 850 25.1 8.9 48 40 -4 24.9
09:20 1020 30.12 849 25.07 9.3 48.8 43 -2.6 27.3
09:25 1020 30.12 849 25.07 9.6 49.4 35 -5.2 22.6
09:30 1020 30.12 849 25.07 10.2 50.3 38 -3.5 25.6
09:35 1020 30.12 849 25.07 10.4 50.8 39 -2.8 27
09:40 1020 30.12 849 25.07 11.2 52.2 34 -4 24.7
09:45 1020 30.12 849 25.07 12.4 54.2 34 -3.2 26.3
09:50 1020 30.12 849 25.07 13.9 57 33 -2.2 28
09:55 1020 30.12 849 25.07 14.2 57.5 34 -1.6 29.1
10:00 1020 30.12 849 25.07 13.7 56.6 33 -2.4 27.7
10:05 1020 30.12 849 25.07 13.4 56.2 33 -2.4 27.7
10:10 1020 30.12 849 25.07 13.9 57.1 31 -2.8 26.9
10:15 1020 30.12 849 25.07 14.5 58 30 -2.7 27.1
10:20 1020 30.12 849 25.07 15.1 59.2 28 -3 26.7
10:25 1019 30.09 849 25.07 15.4 59.7 26 -3.8 25.2
10:30 1020 30.12 849 25.07 15.3 59.6 27 -3.5 25.8
10:35 1020 30.12 849 25.07 15.5 59.9 26 -3.9 25
10:40 1020 30.12 849 25.07 16.2 61.2 24 -4.2 24.5
10:45 1020 30.12 849 25.07 17 62.5 22 -4.7 23.6
10:50 1019 30.09 849 25.07 16.6 62 23 -4.7 23.5
10:55 1019 30.09 849 25.07 17.5 63.4 21 -5.2 22.6
11:00 1019 30.09 849 25.07 17.8 64.1 21 -5 23.1
11:05 1019 30.09 849 25.07 18.3 65 20 -5.1 22.8
11:10 1019 30.09 849 25.07 18.7 65.7 21 -4.1 24.5
11:15 1019 30.09 849 25.07 18.6 65.6 21 -4.1 24.6
11:20 1019 30.09 848 25.04 18.7 65.7 20 -4.4 24
11:25 1019 30.09 848 25.04 19.2 66.6 19 -4.8 23.3
11:30 1019 30.09 848 25.04 19.5 67.1 19 -4.4 24
11:35 1019 30.09 848 25.04 20 68 19 -4.5 23.9
11:40 1019 30.09 848 25.04 20.2 68.4 19 -4.2 24.4
11:45 1019 30.09 848 25.04 19.7 67.5 19 -4.1 24.6
11:50 1019 30.09 848 25.04 20.4 68.7 18 -4.6 23.7
11:55 1019 30.09 848 25.04 21.1 70 17 -4.6 23.8
12:00 1019 30.09 848 25.04 21.5 70.7 17 -4.8 23.3
12:05 1019 30.09 848 25.04 21.3 70.4 18 -3.5 25.7
12:10 1019 30.09 848 25.04 21 69.7 18 -4.1 24.6
12:15 1018 30.06 848 25.04 21.6 70.8 16 -4.9 23.1
12:20 1018 30.06 847 25.01 21.7 71.1 19 -2.6 27.3
12:25 1018 30.06 847 25.01 20.8 69.4 20 -2.6 27.4
12:30 1018 30.06 847 25.01 21.9 71.3 16 -4.5 23.8
12:35 1018 30.06 847 25.01 21.8 71.2 18 -3.2 26.3
12:40 1018 30.06 847 25.01 22.1 71.7 16 -4.4 24.1
12:45 1018 30.06 847 25.01 22.6 72.7 17 -3.6 25.5
12:50 1018 30.06 847 25.01 22.3 72.1 18 -3 26.6
12:55 1018 30.06 847 25.01 23 73.5 18 -2.7 27.1
13:00 1018 30.06 847 25.01 23.3 73.9 19 -1.7 28.9
13:05 1018 30.06 847 25.01 24 75.2 18 -1.3 29.6
13:10 1017 30.03 847 25.01 24.4 75.9 16 -2.7 27.1
13:15 1017 30.03 847 25.01 24.1 75.4 18 -1.6 29.1
13:20 1017 30.03 847 25.01 24.4 75.8 17 -1.7 29
13:25 1017 30.03 847 25.01 24.3 75.8 19 -0.4 31.3
13:30 1017 30.03 846 24.98 24.4 75.8 19 -0.6 31
13:35 1017 30.03 846 24.98 24.7 76.4 18 -1 30.2
13:40 1017 30.03 846 24.98 24.3 75.8 18 -1.2 29.9
13:45 1017 30.03 846 24.98 24.3 75.7 18 -1.6 29.1
13:50 1017 30.03 846 24.98 23.6 74.5 18 -2.1 28.2
13:55 1017 30.03 846 24.98 23.6 74.6 17 -2.7 27.2
14:00 1017 30.03 846 24.98 23.8 74.8 19 -1 30.1
14:05 1017 30.03 846 24.98 24.1 75.4 18 -1.6 29.2
14:10 1017 30.03 846 24.98 24.7 76.4 17 -1.7 28.9
14:15 1017 30.03 846 24.98 24.9 76.9 18 -0.7 30.7
14:20 1017 30.03 846 24.98 25.1 77.1 17 -1.7 28.9
14:25 1017 30.03 846 24.98 25 77 18 -1 30.2
14:30 1017 30.03 846 24.98 24.9 76.8 17 -1.4 29.4
14:35 1017 30.03 846 24.98 24.9 76.9 19 -0.4 31.3
14:40 1017 30.03 846 24.98 25 77 18 -0.6 30.9
14:45 1017 30.03 846 24.98 24.8 76.7 19 -0.3 31.4
14:50 1017 30.03 846 24.98 25 77 18 -0.9 30.4
14:55 1017 30.03 846 24.98 24.6 76.3 19 -0.2 31.6
15:00 1016 30 846 24.98 24.8 76.7 18 -1 30.2
15:05 1016 30 845 24.95 25.1 77.2 16 -2.1 28.2
15:10 1016 30 845 24.95 24.9 76.7 19 -0.1 31.8
15:15 1016 30 845 24.95 24.6 76.2 20 0.2 32.4
15:20 1016 30 845 24.95 24.5 76.1 20 0 32.1
15:25 1016 30 845 24.95 24.5 76.1 20 0.4 32.7
15:30 1016 30 845 24.95 24.3 75.7 21 1.1 33.9
15:35 1016 30 845 24.95 23.8 74.8 21 0.3 32.6
15:40 1016 30 845 24.95 23.4 74.2 22 0.7 33.3
15:45 1016 30 845 24.95 23.4 74.1 22 0.8 33.4
15:50 1016 30 845 24.95 23.5 74.2 22 0.6 33.1
15:55 1016 30 845 24.95 23.5 74.3 23 1.2 34.1
16:00 1016 30 845 24.95 23.8 74.9 21 0.7 33.3
16:05 1016 30 845 24.95 24.6 76.2 21 0.9 33.7
16:10 1015 29.97 845 24.95 24.5 76.1 22 1.4 34.5
16:15 1016 30 845 24.95 23.9 75 22 1.2 34.1
16:20 1015 29.97 845 24.95 24.1 75.4 22 1.1 33.9
16:25 1015 29.97 845 24.95 24.3 75.8 21 0.6 33.2
16:30 1015 29.97 845 24.95 24.6 76.3 21 0.9 33.5
16:35 1015 29.97 844 24.92 24.3 75.7 21 0.9 33.6
16:40 1015 29.97 845 24.95 23.8 74.8 22 0.9 33.7
16:45 1015 29.97 845 24.95 24.1 75.4 21 0.5 32.9
16:50 1015 29.97 844 24.92 24.2 75.5 21 0.6 33.2
16:55 1015 29.97 844 24.92 23.9 75 23 1.5 34.6
17:00 1015 29.97 844 24.92 23.7 74.6 24 1.9 35.5
17:05 1015 29.97 844 24.92 23.5 74.4 23 1.6 34.8
17:10 1015 29.97 844 24.92 23.5 74.3 24 1.7 35.1
17:15 1015 29.97 844 24.92 23.5 74.3 23 1.4 34.6
17:20 1015 29.97 844 24.92 23.5 74.3 24 2 35.6
17:25 1015 29.97 844 24.92 23.4 74.1 25 2.4 36.3
17:30 1015 29.97 844 24.92 23.3 74 25 2.3 36.1
17:35 1015 29.97 844 24.92 23.6 74.4 24 1.9 35.5
17:40 1015 29.97 844 24.92 23.4 74.2 25 2.4 36.3
17:45 1015 29.97 844 24.92 23.2 73.7 25 2.3 36.2
17:50 1015 29.97 844 24.92 23 73.4 25 2.4 36.3
17:55 1015 29.97 844 24.92 22.7 72.9 26 2.5 36.6
18:00 1015 29.97 844 24.92 22.7 72.8 27 2.7 36.9
18:05 1015 29.97 844 24.92 22.8 73 27 3 37.4
18:10 1015 29.97 844 24.92 22.9 73.2 27 2.9 37.3
18:15 1015 29.97 844 24.92 22.6 72.6 28 3.2 37.8
18:20 1015 29.97 844 24.92 22.3 72.2 28 3.2 37.7
18:25 1015 29.97 844 24.92 22.1 71.8 28 3.1 37.6
18:30 1015 29.97 844 24.92 21.8 71.2 29 3.3 37.9
18:35 1015 29.97 844 24.92 21.7 71 29 3.2 37.7
18:40 1015 29.97 844 24.92 21.6 70.8 31 4 39.2
18:45 1015 29.97 844 24.92 21.2 70.2 31 3.6 38.5
18:50 1015 29.97 844 24.92 20.9 69.7 32 3.7 38.6
18:55 1015 29.97 844 24.92 20.7 69.3 32 3.8 38.9
19:00 1015 29.97 844 24.92 20.4 68.8 33 4 39.1
19:05 1015 29.97 844 24.92 20.2 68.3 34 4 39.1
19:10 1014 29.94 844 24.92 20.1 68.1 33 3.6 38.5
19:15 1015 29.97 844 24.92 20 68 34 3.7 38.6
19:20 1014 29.94 844 24.92 19.8 67.7 34 3.8 38.9
19:25 1014 29.94 844 24.92 19.8 67.6 34 3.7 38.7
19:30 1014 29.94 844 24.92 19.7 67.5 34 3.8 38.8
19:35 1014 29.94 844 24.92 19.8 67.6 34 3.6 38.4
19:40 1014 29.94 844 24.92 19.7 67.5 34 3.7 38.6
19:45 1015 29.97 844 24.92 19.7 67.4 34 3.7 38.7
19:50 1015 29.97 844 24.92 19.6 67.3 34 3.5 38.2
19:55 1015 29.97 844 24.92 19.5 67.2 35 3.7 38.7
20:00 1015 29.97 844 24.92 19.3 66.7 36 4.1 39.4
20:05 1015 29.97 844 24.92 19.1 66.4 36 3.8 38.9
20:10 1015 29.97 844 24.92 18.9 66 35 3.3 38
20:15 1015 29.97 844 24.92 18.9 66.1 35 3.2 37.8
20:20 1015 29.97 844 24.92 18.9 66 35 3.1 37.6
20:25 1015 29.97 844 24.92 18.7 65.6 35 2.9 37.1
20:30 1015 29.97 844 24.92 18.8 65.8 34 2.6 36.7
20:35 1015 29.97 844 24.92 19 66.3 33 2.5 36.6
20:40 1015 29.97 844 24.92 19.2 66.6 33 2.7 36.8
20:45 1015 29.97 844 24.92 19.4 66.8 32 2.2 35.9
20:50 1015 29.97 844 24.92 19.6 67.4 32 2.6 36.6
20:55 1014 29.94 844 24.92 19.4 67 33 2.7 36.9
21:00 1014 29.94 844 24.92 19.1 66.4 31 1.9 35.5
21:05 1014 29.94 844 24.92 19.2 66.5 30 1.4 34.5
21:10 1014 29.94 844 24.92 19.3 66.7 30 1.5 34.7
21:15 1014 29.94 844 24.92 19.5 67.1 29 1.2 34.1
21:20 1014 29.94 844 24.92 19.6 67.4 29 1.3 34.3
21:25 1014 29.94 844 24.92 19.5 67.1 30 1.6 34.9
21:30 1014 29.94 844 24.92 19.2 66.6 31 1.7 35.1
21:35 1014 29.94 844 24.92 18.9 66.1 32 2 35.6
21:40 1014 29.94 844 24.92 18.7 65.7 33 2.2 36
21:45 1014 29.94 844 24.92 18.5 65.3 33 2.1 35.8
21:50 1014 29.94 844 24.92 18.4 65 33 2 35.5
21:55 1014 29.94 844 24.92 18.3 64.9 33 2 35.6
22:00 1014 29.94 844 24.92 18.3 64.9 33 1.7 35
22:05 1014 29.94 844 24.92 18.4 65.1 32 1.7 35.1
22:10 1014 29.94 844 24.92 18.4 65.2 32 1.7 35
22:15 1014 29.94 844 24.92 18.5 65.2 32 1.8 35.2
22:20 1014 29.94 844 24.92 18.3 65 33 2 35.7
22:25 1014 29.94 844 24.92 18.2 64.8 33 2 35.5
22:30 1014 29.94 844 24.92 18.1 64.6 33 1.9 35.5
22:35 1014 29.94 843 24.89 18 64.4 34 1.8 35.3
22:40 1014 29.94 844 24.92 18 64.4 34 2.1 35.8
22:45 1014 29.94 843 24.89 17.8 64.1 34 2.1 35.7
22:50 1014 29.94 843 24.89 17.7 63.8 36 2.3 36.2
22:55 1014 29.94 843 24.89 17.5 63.4 35 2 35.6
23:00 1014 29.94 843 24.89 17.3 63.1 35 1.9 35.5
23:05 1014 29.94 844 24.92 17.2 63 35 1.9 35.4
23:10 1014 29.94 844 24.92 17.1 62.9 35 1.7 35.1
23:15 1014 29.94 843 24.89 17.1 62.8 35 1.6 34.9
23:20 1014 29.94 843 24.89 17.2 62.9 35 1.6 34.9
23:25 1014 29.94 843 24.89 17.1 62.9 35 1.5 34.7
23:30 1014 29.94 843 24.89 17.3 63.1 34 1.2 34.2
23:35 1014 29.94 843 24.89 17.4 63.3 32 0.8 33.5
23:40 1014 29.94 843 24.89 17.7 63.8 32 0.7 33.3
23:45 1014 29.94 843 24.89 17.7 63.8 31 0.6 33
23:50 1014 29.94 843 24.89 17.7 63.9 31 0.4 32.7
23:55 1014 29.94 843 24.89 17.9 64.2 30 0 32.1
24:00 1014 29.94 843 24.89 18 64.3 30 0.3 32.5